Ontario, CA (91764)

10:30 AM PDT on April 29, 2017 (GMT -0700)
The Orchards @ Downtown Upland | | Change Station
Active Advisory: High Wind Warning

Elev 1318 ft 34.09 °N, 117.64 °W | Updated 19 seconds ago

Clear
Clear
73.9 °F
Feels Like 75 °F
N
8.3
Wind Variable Wind from North

Today
High -- | Low -- °F
--% Chance of Precip.
Yesterday
High -- | Low -- °F
Precip. -- in
Pressure 29.98 in
Visibility 10.0 miles
Clouds Clear
Heat Index 75 °F
Dew Point 22 °F
Humidity 14%
Rainfall 0.00 in
Snow Depth Not available.
6:02 AM 7:33 PM
Waxing Crescent, 15% visible
METAR KONT 291653Z 05026G39KT 10SM CLR 22/M11 A3002 RMK AO2 PK WND 04040/1603 SLP151 VCBLDU T02171106
Pressure 29.98 in
Visibility 10.0 miles
Clouds Clear
Heat Index 75 °F
Dew Point 22 °F
Humidity 14%
Rainfall 0.00 in
Snow Depth Not available.
6:02 AM 7:33 PM
Waxing Crescent, 15% visible
METAR KONT 291653Z 05026G39KT 10SM CLR 22/M11 A3002 RMK AO2 PK WND 04040/1603 SLP151 VCBLDU T02171106

Get Your Daily Forecast Email!

Thanks for signing up!

Be on the lookout for a verification email in your inbox.

You'll start receiving severe weather alerts in your inbox..

×

10-Day Weather Forecast

Almanac

Astronomy

Apr. 29, 2017 Rise Set
Actual Time
Civil Twilight
Nautical Twilight
Astronomical Twilight
Moon
Length of Visible Light
Length of Day
Tomorrow will be .
, % of the Moon is Illuminated

Today's Extremes

State Highs State Lows

Community

WunderPhotos

WunderBlog® & News

Nearby

Air Quality

  Air Quality AQ Index Pollutant
Not available.

Snow Depth

Station Depth Elevation

Earthquake Activity

City Distance Mag. Time & Date
Minimum magnitude displayed is 2.5.

Coastal Water Temperatures

Place Temperature

Stations

Nearby Weather Stations

Station Location Temp. Windchill Dew Point Humidity Wind Precip. Elev Updated Type
                   

Watches & Warnings

High Wind Warning
Issued: 3:52 AM PDT Apr. 29, 2017 – National Weather Service

... High Wind Warning now in effect until noon PDT today...

* winds... areas of northeast winds 20 to 30 mph with gusts to 55
mph. Isolated gusts to 65 mph near and along coastal slopes of
the mountains and below the Cajon Pass.

* Timing... strongest and most widespread winds after sunrise.
Winds will diminish rapidly during the late morning and afternoon.
* Locations... strongest winds near and along coastal slopes of
the mountains and below the Cajon Pass.

* Impacts... the winds will make driving difficult... especially for
motorists with high profile vehicles. Watch for broken tree
limbs and downed Palm fronds.

* Reports... please send reports of strong winds and wind damage to
the National Weather Service via facebook and twitter feeds and online.


Precautionary/preparedness actions...

A High Wind Warning means a hazardous high wind event is expected
or occurring. Sustained wind speeds of at least 40 mph or gusts
of 58 mph or more can lead to property damage.